createdAt,value
2023-02-01T00:00:01.861Z,99.27
2023-02-01T00:05:01.864Z,99.11
2023-02-01T00:10:01.734Z,99.24
2023-02-01T00:15:03.025Z,99.27
2023-02-01T00:20:02.389Z,99.01
2023-02-01T00:25:01.693Z,99.19
2023-02-01T00:30:02.337Z,99.23
2023-02-01T00:35:01.783Z,99
2023-02-01T00:40:01.486Z,98.98
2023-02-01T00:45:02.047Z,98.4
2023-02-01T00:50:01.694Z,98.25
2023-02-01T00:55:01.553Z,99.11
2023-02-01T01:00:01.397Z,98.07
2023-02-01T01:05:01.486Z,97.9
2023-02-01T01:10:01.497Z,97.29
2023-02-01T01:15:02.364Z,97.53
2023-02-01T01:20:01.816Z,96.43
2023-02-01T01:25:01.554Z,96.28
2023-02-01T01:30:02.189Z,95.92
2023-02-01T01:35:01.774Z,95.45
2023-02-01T01:40:01.600Z,95.61
2023-02-01T01:45:01.607Z,95.2
2023-02-01T01:50:02.165Z,95.06
2023-02-01T01:55:01.727Z,95.46
2023-02-01T02:00:01.398Z,95.12
2023-02-01T02:05:01.703Z,95.27
2023-02-01T02:10:01.941Z,94.87
2023-02-01T02:15:01.762Z,95.31
2023-02-01T02:20:02.026Z,95.46
2023-02-01T02:25:01.907Z,95.44
2023-02-01T02:30:02.368Z,95.52
2023-02-01T02:35:01.880Z,95.42
2023-02-01T02:40:01.488Z,95.49
2023-02-01T02:45:02.277Z,95.68
2023-02-01T02:50:01.905Z,95.62
2023-02-01T02:55:02.172Z,95.49
2023-02-01T03:00:01.563Z,95.82
2023-02-01T03:05:01.369Z,95.53
2023-02-01T03:10:01.933Z,95.35
2023-02-01T03:15:01.513Z,95.01
2023-02-01T03:20:01.635Z,94.61
2023-02-01T03:25:02.411Z,94.54
2023-02-01T03:30:02.283Z,95.1
2023-02-01T03:35:01.804Z,95
2023-02-01T03:40:01.340Z,95.63
2023-02-01T03:45:01.373Z,95.31
2023-02-01T03:50:01.351Z,94.96
2023-02-01T03:55:01.370Z,94.48
2023-02-01T04:00:02.261Z,93.51
2023-02-01T04:05:01.483Z,93.24
2023-02-01T04:10:02.128Z,93.21
2023-02-01T04:15:01.391Z,92.95
2023-02-01T04:20:02.071Z,93.39
2023-02-01T04:25:02.158Z,93.32
2023-02-01T04:30:01.814Z,92.9
2023-02-01T04:35:02.016Z,92.58
2023-02-01T04:40:01.303Z,92.97
2023-02-01T04:45:01.711Z,93.22
2023-02-01T04:50:01.862Z,93.08
2023-02-01T04:55:02.148Z,92.67
2023-02-01T05:00:01.806Z,93.22
2023-02-01T05:05:01.608Z,93.34
2023-02-01T05:10:01.974Z,93
2023-02-01T05:15:01.450Z,92.65
2023-02-01T05:20:02.277Z,92.69
2023-02-01T05:25:01.316Z,92.86
2023-02-01T05:30:02.253Z,92.9
2023-02-01T05:35:02.127Z,93.19
2023-02-01T05:40:01.712Z,92.91
2023-02-01T05:45:01.984Z,92.73
2023-02-01T05:50:02.253Z,92.51
2023-02-01T05:55:02.250Z,92.8
2023-02-01T06:00:01.391Z,92.96
2023-02-01T06:05:02.092Z,93.06
2023-02-01T06:10:01.343Z,93.23
2023-02-01T06:15:01.762Z,93.48
2023-02-01T06:20:01.570Z,93.23
2023-02-01T06:25:01.990Z,93.38
2023-02-01T06:30:02.088Z,93.58
2023-02-01T06:35:02.156Z,93.8
2023-02-01T06:40:01.336Z,93.67
2023-02-01T06:45:01.786Z,93.19
2023-02-01T06:50:01.888Z,93.51
2023-02-01T06:55:01.969Z,93.29
2023-02-01T07:00:02.239Z,93.29
2023-02-01T07:05:01.409Z,93.39
2023-02-01T07:10:02.135Z,93.32
2023-02-01T07:15:01.396Z,92.87
2023-02-01T07:20:01.678Z,93.35
2023-02-01T07:25:01.989Z,93.5
2023-02-01T07:30:01.994Z,93.58
2023-02-01T07:35:01.987Z,93.29
2023-02-01T07:40:01.995Z,93.14
2023-02-01T07:45:14.637Z,93.02
2023-02-01T07:50:01.295Z,93.29
2023-02-01T07:55:01.705Z,93.29
2023-02-01T08:00:01.930Z,93.18
2023-02-01T08:05:01.616Z,92.64
2023-02-01T08:10:01.590Z,92.13
2023-02-01T08:15:02.028Z,91.62
2023-02-01T08:20:01.399Z,91.52
2023-02-01T08:25:01.910Z,91.34
2023-02-01T08:30:01.374Z,92.09
2023-02-01T08:35:02.264Z,91.51
2023-02-01T08:40:01.482Z,91.87
2023-02-01T08:45:01.981Z,90.96
2023-02-01T08:50:01.414Z,90.7
2023-02-01T08:55:01.612Z,90.32
2023-02-01T09:00:01.945Z,90.97
2023-02-01T09:05:02.242Z,90.61
2023-02-01T09:10:02.132Z,90.06
2023-02-01T09:15:02.353Z,90.49
2023-02-01T09:20:01.616Z,90.15
2023-02-01T09:25:02.153Z,90.34
2023-02-01T09:30:01.656Z,89.74
2023-02-01T09:35:01.922Z,89.45
2023-02-01T09:40:02.355Z,89.62
2023-02-01T09:45:01.688Z,89.39
2023-02-01T09:50:01.360Z,89.75
2023-02-01T09:55:01.875Z,89.44
2023-02-01T10:00:02.238Z,89.61
2023-02-01T10:05:02.182Z,90.26
2023-02-01T10:10:01.960Z,88.68
2023-02-01T10:15:02.129Z,87.92
2023-02-01T10:20:01.712Z,88.34
2023-02-01T10:25:02.091Z,88.75
2023-02-01T10:30:02.242Z,88.72
2023-02-01T10:35:02.068Z,88.2
2023-02-01T10:40:01.458Z,87.98
2023-02-01T10:45:02.080Z,87.81
2023-02-01T10:50:01.469Z,86.62
2023-02-01T10:55:02.256Z,87.02
2023-02-01T11:00:01.588Z,85.34
2023-02-01T11:05:01.714Z,85.82
2023-02-01T11:10:01.379Z,86.25
2023-02-01T11:15:02.256Z,86.25
2023-02-01T11:20:02.018Z,85.69
2023-02-01T11:25:02.190Z,85.14
2023-02-01T11:30:01.446Z,86.42
2023-02-01T11:35:01.813Z,85.11
2023-02-01T11:40:01.308Z,84.98
2023-02-01T11:45:01.933Z,83.84
2023-02-01T11:50:02.374Z,83.6
2023-02-01T11:55:01.956Z,84.66
2023-02-01T12:00:02.312Z,83.32
2023-02-01T12:05:01.954Z,83.34
2023-02-01T12:10:02.302Z,84.27
2023-02-01T12:15:01.719Z,84.35
2023-02-01T12:20:02.081Z,83.84
2023-02-01T12:25:01.673Z,84.05
2023-02-01T12:30:01.778Z,83.79
2023-02-01T12:35:01.604Z,84.05
2023-02-01T12:40:02.071Z,84.63
2023-02-01T12:45:01.833Z,84.18
2023-02-01T12:50:01.891Z,84.18
2023-02-01T12:55:01.440Z,83.6
2023-02-01T13:00:02.149Z,83.26
2023-02-01T13:05:01.831Z,82.75
2023-02-01T13:10:01.916Z,82.38
2023-02-01T13:15:01.849Z,82.89
2023-02-01T13:20:01.661Z,82.03
2023-02-01T13:25:02.016Z,82.76
2023-02-01T13:30:01.502Z,81.57
2023-02-01T13:35:01.705Z,82.02
2023-02-01T13:40:01.406Z,82.7
2023-02-01T13:45:01.981Z,83.05
2023-02-01T13:50:01.485Z,84.49
2023-02-01T13:55:01.420Z,86.89
2023-02-01T14:00:02.249Z,87.27
2023-02-01T14:05:01.725Z,86.82
2023-02-01T14:10:01.464Z,86.58
2023-02-01T14:15:02.373Z,86.59
2023-02-01T14:20:01.805Z,85.24
2023-02-01T14:25:01.345Z,85.01
2023-02-01T14:30:02.319Z,85.51
2023-02-01T14:35:01.997Z,85.22
2023-02-01T14:40:01.539Z,85.25
2023-02-01T14:45:02.321Z,84.73
2023-02-01T14:50:01.531Z,84.8
2023-02-01T14:55:02.021Z,84.55
2023-02-01T15:00:02.147Z,84.38
2023-02-01T15:05:01.493Z,84.09
2023-02-01T15:10:02.081Z,84.39
2023-02-01T15:15:01.723Z,83.89
2023-02-01T15:20:02.149Z,83.46
2023-02-01T15:25:01.531Z,84.33
2023-02-01T15:30:02.102Z,83.77
2023-02-01T15:35:01.335Z,83.94
2023-02-01T15:40:01.922Z,83.8
2023-02-01T15:45:01.319Z,84.18
2023-02-01T15:50:02.187Z,84.25
2023-02-01T15:55:01.393Z,85.33
2023-02-01T16:00:01.824Z,86.91
2023-02-01T16:05:02.243Z,88.8
2023-02-01T16:10:01.982Z,90.48
2023-02-01T16:15:01.453Z,92.32
2023-02-01T16:20:02.168Z,94.86
2023-02-01T16:25:01.559Z,95.9
2023-02-01T16:30:01.432Z,96.73
2023-02-01T16:35:01.631Z,97.81
2023-02-01T16:40:01.927Z,97.02
2023-02-01T16:45:02.004Z,98.57
2023-02-01T16:50:04.241Z,96.78
2023-02-01T16:55:02.001Z,97.18
2023-02-01T17:00:02.872Z,97.33
2023-02-01T17:05:02.126Z,99.68
2023-02-01T17:10:02.037Z,97.95
2023-02-01T17:15:01.500Z,98.37
2023-02-01T17:20:02.112Z,98.62
2023-02-01T17:25:01.417Z,98.69
2023-02-01T17:30:02.062Z,98.97
2023-02-01T17:35:01.318Z,98.88
2023-02-01T17:40:02.045Z,99.1
2023-02-01T17:45:02.280Z,99.28
2023-02-01T17:50:01.449Z,99.03
2023-02-01T17:55:02.034Z,99.08
2023-02-01T18:00:02.170Z,98.67
2023-02-01T18:05:01.359Z,98.6
2023-02-01T18:10:02.089Z,98.44
2023-02-01T18:15:01.424Z,100.27
2023-02-01T18:20:01.328Z,100.41
2023-02-01T18:25:01.747Z,100.31
2023-02-01T18:30:01.951Z,98.11
2023-02-01T18:35:02.299Z,100.22
2023-02-01T18:40:01.714Z,100.23
2023-02-01T18:45:02.219Z,99.32
2023-02-01T18:50:01.570Z,99.19
2023-02-01T18:55:02.075Z,98.84
2023-02-01T19:00:01.432Z,98.6
2023-02-01T19:05:01.886Z,98.21
2023-02-01T19:10:02.226Z,98.63
2023-02-01T19:15:01.404Z,97.31
2023-02-01T19:20:01.881Z,98.39
2023-02-01T19:25:02.142Z,98.29
2023-02-01T19:30:01.361Z,98.03
2023-02-01T19:35:01.794Z,97.66
2023-02-01T19:40:02.196Z,97.72
2023-02-01T19:45:01.370Z,97.61
2023-02-01T19:50:01.746Z,97.72
2023-02-01T19:55:02.032Z,96.99
2023-02-01T20:00:01.558Z,96.21
2023-02-01T20:05:01.278Z,96.65
2023-02-01T20:10:01.027Z,95.98
2023-02-01T20:15:01.129Z,96.62
2023-02-01T20:20:00.801Z,96.5
2023-02-01T20:25:01.044Z,96.17
2023-02-01T20:30:02.112Z,95.35
2023-02-01T20:35:02.183Z,95.31
2023-02-01T20:40:01.390Z,95.24
2023-02-01T20:45:02.341Z,95.14
2023-02-01T20:50:02.141Z,94.84
2023-02-01T20:55:01.913Z,94.94
2023-02-01T21:00:01.482Z,94.79
2023-02-01T21:05:02.045Z,95.13
2023-02-01T21:10:02.103Z,94.54
2023-02-01T21:15:02.073Z,94.67
2023-02-01T21:20:02.071Z,94.54
2023-02-01T21:25:02.306Z,94.57
2023-02-01T21:30:01.443Z,94.33
2023-02-01T21:35:01.647Z,94.31
2023-02-01T21:40:02.187Z,94.63
2023-02-01T21:45:01.728Z,94.31
2023-02-01T21:50:01.544Z,94.32
2023-02-01T21:55:01.326Z,94.35
2023-02-01T22:00:01.715Z,94.46
2023-02-01T22:05:02.197Z,94.52
2023-02-01T22:10:01.544Z,94.78
2023-02-01T22:15:01.982Z,94.36
2023-02-01T22:20:02.275Z,94.58
2023-02-01T22:25:01.537Z,94.09
2023-02-01T22:30:02.059Z,94.69
2023-02-01T22:35:01.704Z,94.38
2023-02-01T22:40:02.086Z,93.83
2023-02-01T22:45:02.195Z,94.35
2023-02-01T22:50:01.577Z,93.8
2023-02-01T22:55:02.001Z,94.68
2023-02-01T23:00:01.836Z,94.35
2023-02-01T23:05:01.745Z,94.71
2023-02-01T23:10:01.752Z,94.12
2023-02-01T23:15:02.347Z,94.35
2023-02-01T23:20:02.316Z,94.15
2023-02-01T23:25:02.637Z,94.17
2023-02-01T23:30:02.635Z,94.36
2023-02-01T23:35:02.578Z,94.5
2023-02-01T23:40:02.634Z,94.83
2023-02-01T23:45:01.826Z,94.58
2023-02-01T23:50:01.856Z,94.35
2023-02-01T23:55:02.303Z,94.65
